NC98 weather

Sentara Albemarle Regional Medical Center Heliport
Elizabeth City, North Carolina, United States

Public forecast

Using degrees Fahrenheit for public forecast. Weather courtesy of forecast.io.

METAR (pilot weather report)

Closest report is Elizabeth City Regional Airport & Coast Guard Air Station, 4.3 nm (8.0 km) SSE. Retrieved 2019/02/20 10:54 UTC (30 minutes ago):

KECG 201054Z AUTO 06014KT 10SM BKN050 OVC070 03/01 A3048 RMK AO2 RAB21E29SNB29E39 PRESFR SLP320 P0000 T00330006

TAF (pilot weather forecast)

Closest forecast is Elizabeth City Regional Airport & Coast Guard Air Station, 4.3 nm (8.0 km) SSE. Retrieved 2019/02/20 06:36 UTC (5 hours ago):

TAF TAF KECG 200530Z 2006/2106 01006KT P6SM VCSH OVC060 FM201200 06012KT 5SM -RA BR SCT025 OVC040 FM201800 09011KT 4SM -RA BR OVC007 FM210000 13009KT 4SM -RA BR OVC005 FM210500 21009KT P6SM -RA OVC008